This is the latest recevied weather packets stored in our database for station/object YO8PIC-4. If no packets are shown the sender has not sent any weather packets the latest 10 day(s).
| Time | Temp. | Humidity | Pressure | Rain* | Wind** | Luminosity | Snow |
|---|---|---|---|---|---|---|---|
| 1777897345 | 23.33° C | 55% | 1011.6 hPa | - | - | - | - |
| 1777896745 | 23.33° C | 55% | 1011.8 hPa | - | - | - | - |
| 1777896144 | 23.33° C | 55% | 1011.9 hPa | - | - | - | - |
| 1777895544 | 23.33° C | 55% | 1011.9 hPa | - | - | - | - |
| 1777894943 | 23.33° C | 55% | 1011.7 hPa | - | - | - | - |
| 1777894340 | 23.33° C | 55% | 1012.2 hPa | - | - | - | - |
| 1777893791 | 25° C | 51% | 1012.2 hPa | - | - | - | - |
| 1777893190 | 26.11° C | 48% | 1012.3 hPa | - | - | - | - |
| 1777892590 | 26.67° C | 47% | 1012.4 hPa | - | - | - | - |
| 1777891990 | 26.11° C | 49% | 1012.5 hPa | - | - | - | - |
| 1777891390 | 26.67° C | 48% | 1012.7 hPa | - | - | - | - |
| 1777890790 | 25.56° C | 49% | 1012.7 hPa | - | - | - | - |
| 1777890190 | 25.56° C | 50% | 1012.8 hPa | - | - | - | - |
| 1777889589 | 26.11° C | 48% | 1012.9 hPa | - | - | - | - |
| 1777888989 | 26.11° C | 48% | 1012.7 hPa | - | - | - | - |
| 1777888389 | 25.56° C | 50% | 1013 hPa | - | - | - | - |
| 1777887789 | 25.56° C | 49% | 1013.1 hPa | - | - | - | - |
| 1777887189 | 26.11° C | 48% | 1013.2 hPa | - | - | - | - |
| 1777886589 | 26.11° C | 48% | 1013.3 hPa | - | - | - | - |
| 1777885989 | 25.56° C | 49% | 1013.3 hPa | - | - | - | - |
| 1777885389 | 25.56° C | 49% | 1013.4 hPa | - | - | - | - |
| 1777884788 | 25.56° C | 50% | 1013.4 hPa | - | - | - | - |
| 1777884188 | 25.56° C | 49% | 1013.4 hPa | - | - | - | - |
| 1777883588 | 26.11° C | 49% | 1013.5 hPa | - | - | - | - |
| 1777882988 | 26.11° C | 48% | 1013.5 hPa | - | - | - | - |
* Rain since midnight (hover to see other rain measurements)
** Current wind speed in m/s (hover to see current wind gust speed)